Time;durP1;ratioP1;P1;durP2;ratioP2;P2;SDS_P1;SDS_P2;PMS_P1;PMS_P2;Temp;Humidity;BMP_temperature;BMP_pressure;BME280_temperature;BME280_humidity;BME280_pressure;Samples;Min_cycle;Max_cycle;Signal;HPM_P1;HPM_P2
2022/08/09 00:01:17;;;;;;;5.10;3.80;;;;;;;14.25;72.94;101115.64;129766;1267;1246684;-79
2022/08/09 00:04:23;;;;;;;5.70;3.30;;;;;;;14.30;72.83;101115.62;131096;1267;108757;-74
2022/08/09 00:07:28;;;;;;;4.30;3.10;;;;;;;14.31;73.23;101115.55;130300;1267;108993;-76
2022/08/09 00:10:33;;;;;;;4.50;3.30;;;;;;;14.35;73.26;101114.10;130242;1268;108111;-76
2022/08/09 00:13:39;;;;;;;4.40;3.50;;;;;;;14.40;73.22;101115.39;130288;1267;108693;-75
2022/08/09 00:16:44;;;;;;;5.10;3.80;;;;;;;14.48;73.30;101118.83;130335;1267;108788;-82
2022/08/09 00:19:50;;;;;;;4.90;3.60;;;;;;;14.44;73.38;101116.95;130285;1268;108911;-82
2022/08/09 00:22:55;;;;;;;3.70;3.30;;;;;;;14.43;73.49;101120.41;130362;1268;108466;-80
2022/08/09 00:26:00;;;;;;;4.20;3.10;;;;;;;14.43;73.63;101122.53;130243;1268;108778;-77
2022/08/09 00:29:06;;;;;;;3.50;3.00;;;;;;;14.42;73.93;101120.40;130376;1268;108849;-79
2022/08/09 00:32:11;;;;;;;5.10;3.30;;;;;;;14.45;73.87;101121.52;130300;1268;107239;-79
2022/08/09 00:35:16;;;;;;;7.40;3.50;;;;;;;14.45;73.78;101120.00;130240;1268;109099;-79
2022/08/09 00:38:22;;;;;;;3.80;3.20;;;;;;;14.45;74.20;101124.73;130285;1267;108772;-79
2022/08/09 00:41:27;;;;;;;5.30;3.60;;;;;;;14.46;74.26;101122.95;130284;1268;109004;-81
2022/08/09 00:44:33;;;;;;;4.90;3.30;;;;;;;14.43;74.27;101122.73;130270;1268;108965;-77
2022/08/09 00:47:38;;;;;;;3.40;3.00;;;;;;;14.42;74.40;101119.80;130328;1268;108812;-77
2022/08/09 00:50:44;;;;;;;4.10;3.40;;;;;;;14.43;74.32;101122.95;130322;1267;108921;-80
2022/08/09 00:53:50;;;;;;;5.30;3.70;;;;;;;14.37;74.50;101121.60;130335;1268;108807;-78
2022/08/09 00:56:55;;;;;;;4.10;3.30;;;;;;;14.33;74.50;101123.39;130316;1268;109021;-75
2022/08/09 01:00:00;;;;;;;4.70;3.10;;;;;;;14.34;74.49;101125.67;130245;1268;108964;-75
2022/08/09 01:03:13;;;;;;;3.80;3.20;;;;;;;14.32;74.79;101121.23;130331;1267;108650;-75
2022/08/09 01:06:33;;;;;;;5.70;2.90;;;;;;;14.25;74.49;101123.52;130219;1268;109217;-77
2022/08/09 01:09:45;;;;;;;3.60;2.80;;;;;;;14.18;74.77;101124.09;130185;1268;108821;-77
2022/08/09 01:12:55;;;;;;;5.10;3.40;;;;;;;14.15;74.64;101123.81;130326;1268;108739;-77
2022/08/09 01:16:03;;;;;;;6.00;3.90;;;;;;;14.07;75.12;101122.67;130219;1268;109768;-77
2022/08/09 01:19:33;;;;;;;4.10;3.00;;;;;;;13.95;75.20;101124.05;130262;1268;108738;-75
2022/08/09 01:23:03;;;;;;;4.10;3.00;;;;;;;13.86;74.92;101129.44;130313;1268;108837;-76
2022/08/09 01:26:24;;;;;;;3.60;3.00;;;;;;;13.72;74.94;101134.22;130271;1268;108189;-76
2022/08/09 01:29:35;;;;;;;5.00;3.40;;;;;;;13.66;75.35;101137.59;130376;1268;108844;-76
2022/08/09 01:32:45;;;;;;;4.20;3.20;;;;;;;13.65;75.25;101136.33;130294;1267;108794;-77
2022/08/09 01:35:57;;;;;;;4.30;3.10;;;;;;;13.56;75.14;101136.84;130181;1268;109669;-77
2022/08/09 01:39:04;;;;;;;5.00;3.30;;;;;;;13.46;75.38;101138.56;130250;1268;108719;-78
2022/08/09 01:42:09;;;;;;;4.30;2.80;;;;;;;13.37;75.60;101136.73;130315;1267;108905;-77
2022/08/09 01:45:16;;;;;;;3.70;2.90;;;;;;;13.36;75.72;101133.36;130359;1267;108824;-78
2022/08/09 01:48:23;;;;;;;4.00;2.90;;;;;;;13.37;75.35;101134.55;130349;1268;109586;-78
2022/08/09 01:51:30;;;;;;;4.60;3.00;;;;;;;13.32;75.55;101138.39;130185;1268;108962;-76
2022/08/09 01:54:40;;;;;;;4.40;3.30;;;;;;;13.28;75.41;101138.96;130348;1267;108821;-77
2022/08/09 01:57:49;;;;;;;4.70;3.50;;;;;;;13.28;75.77;101141.45;130374;1267;108630;-75
2022/08/09 02:00:57;;;;;;;4.00;3.10;;;;;;;13.35;75.81;101137.47;130197;1268;108657;-75
2022/08/09 02:04:03;;;;;;;5.50;2.90;;;;;;;13.42;76.02;101138.42;130190;1267;108695;-75
2022/08/09 02:07:15;;;;;;;4.20;3.30;;;;;;;13.49;75.95;101139.45;130327;1267;108816;-75
2022/08/09 02:10:24;;;;;;;4.50;3.30;;;;;;;13.54;75.91;101141.16;130317;1267;109106;-75
2022/08/09 02:13:31;;;;;;;4.60;3.40;;;;;;;13.54;75.93;101139.17;130349;1267;108972;-79
2022/08/09 02:16:39;;;;;;;4.30;3.50;;;;;;;13.46;75.98;101146.77;130254;1268;108846;-76
2022/08/09 02:19:46;;;;;;;4.10;3.10;;;;;;;13.43;76.32;101144.23;130191;1267;108553;-76
2022/08/09 02:22:56;;;;;;;5.90;3.20;;;;;;;13.37;76.31;101150.30;130338;1267;108885;-77
2022/08/09 02:26:04;;;;;;;5.20;3.00;;;;;;;13.38;76.39;101150.80;130228;1268;108417;-77
2022/08/09 02:29:14;;;;;;;3.90;3.20;;;;;;;13.42;76.68;101148.04;130191;1268;108925;-77
2022/08/09 02:32:23;;;;;;;4.70;3.40;;;;;;;13.50;76.68;101146.52;130313;1268;108839;-80
2022/08/09 02:35:30;;;;;;;4.40;3.60;;;;;;;13.52;76.78;101147.09;130384;1268;108760;-80
2022/08/09 02:38:44;;;;;;;5.20;3.10;;;;;;;13.54;76.90;101152.05;130468;1268;108895;-80
2022/08/09 02:41:58;;;;;;;3.50;3.10;;;;;;;13.57;76.96;101152.07;130412;1267;108708;-80
2022/08/09 02:45:08;;;;;;;4.80;3.10;;;;;;;13.66;77.07;101152.27;130469;1268;108138;-80
2022/08/09 02:48:16;;;;;;;4.10;3.20;;;;;;;13.74;76.90;101154.17;130312;1268;109018;-80
2022/08/09 02:51:24;;;;;;;4.80;3.40;;;;;;;13.75;76.73;101152.99;130494;1267;108697;-80
2022/08/09 02:54:32;;;;;;;4.90;3.20;;;;;;;13.68;76.91;101156.41;130539;1268;108577;-84
2022/08/09 02:57:39;;;;;;;4.70;3.00;;;;;;;13.71;77.27;101153.42;130656;1267;108514;-83
2022/08/09 03:00:45;;;;;;;4.10;3.00;;;;;;;13.68;77.19;101160.33;130726;1267;108967;-83
2022/08/09 03:03:52;;;;;;;5.90;3.10;;;;;;;13.70;77.46;101164.95;130341;1268;108866;-84
2022/08/09 03:06:59;;;;;;;5.90;3.30;;;;;;;13.74;77.52;101164.89;130438;1267;108653;-84
2022/08/09 03:10:06;;;;;;;6.50;3.70;;;;;;;13.79;77.75;101159.23;130486;1267;108957;-84
2022/08/09 03:13:13;;;;;;;5.10;3.90;;;;;;;13.78;77.64;101159.54;130546;1267;108646;-83
2022/08/09 03:16:19;;;;;;;4.80;3.70;;;;;;;13.82;77.80;101161.42;130282;1268;108844;-83
2022/08/09 03:19:27;;;;;;;7.20;3.60;;;;;;;13.87;77.78;101160.83;130497;1267;108590;-77
2022/08/09 03:22:36;;;;;;;7.20;4.20;;;;;;;13.90;77.77;101160.49;130433;1268;108645;-77
2022/08/09 03:25:42;;;;;;;5.40;4.20;;;;;;;13.92;77.87;101152.94;130284;1268;108795;-77
2022/08/09 03:28:50;;;;;;;6.20;4.30;;;;;;;13.93;77.71;101154.45;130377;1267;108882;-77
2022/08/09 03:31:57;;;;;;;5.90;4.30;;;;;;;13.96;77.85;101159.34;130335;1267;108564;-73
2022/08/09 03:35:02;;;;;;;5.10;3.70;;;;;;;13.94;77.88;101161.46;130216;1268;108707;-76
2022/08/09 03:38:08;;;;;;;7.20;3.60;;;;;;;13.91;78.05;101157.82;130303;1267;109744;-77
2022/08/09 03:41:15;;;;;;;6.30;3.70;;;;;;;13.97;78.23;101162.16;130403;1267;108653;-77
2022/08/09 03:44:21;;;;;;;4.80;3.30;;;;;;;14.00;78.10;101157.34;130215;1268;109586;-78
2022/08/09 03:47:26;;;;;;;5.10;3.50;;;;;;;14.04;78.09;101159.66;130407;1267;108013;-77
2022/08/09 03:50:33;;;;;;;3.80;3.40;;;;;;;14.09;78.34;101158.41;130485;1267;106882;-77
2022/08/09 03:53:39;;;;;;;6.80;3.20;;;;;;;14.09;78.32;101161.10;130412;1267;108883;-78
2022/08/09 03:56:45;;;;;;;3.80;3.00;;;;;;;14.07;78.60;101161.06;130422;1267;109316;-74
2022/08/09 03:59:52;;;;;;;5.40;3.20;;;;;;;14.15;78.67;101161.40;130570;1268;108807;-78
2022/08/09 04:02:58;;;;;;;6.00;3.20;;;;;;;14.29;78.74;101163.77;130731;1267;108740;-82
2022/08/09 04:06:05;;;;;;;4.40;3.20;;;;;;;14.31;78.73;101165.84;131225;1268;107054;-80
2022/08/09 04:09:12;;;;;;;4.40;3.80;;;;;;;14.36;78.76;101169.27;130852;1267;108661;-79
2022/08/09 04:12:46;;;;;;;7.00;3.90;;;;;;;14.43;78.90;101169.91;130359;1267;109981;-80
2022/08/09 04:15:51;;;;;;;4.30;3.00;;;;;;;14.45;79.03;101169.83;130462;1267;108690;-78
2022/08/09 04:18:56;;;;;;;4.20;3.50;;;;;;;14.44;79.16;101163.85;131135;1267;108791;-81
2022/08/09 04:22:01;;;;;;;3.90;3.00;;;;;;;14.47;79.19;101166.92;130690;1268;107730;-79
2022/08/09 04:25:09;;;;;;;3.90;3.30;;;;;;;14.50;79.41;101170.34;130366;1267;108743;-77
2022/08/09 04:28:14;;;;;;;4.10;3.50;;;;;;;14.58;79.62;101174.08;130432;1267;108847;-77
2022/08/09 04:31:20;;;;;;;4.10;3.40;;;;;;;14.67;79.37;101174.02;130331;1267;108869;-76
2022/08/09 04:34:25;;;;;;;5.30;3.20;;;;;;;14.74;79.69;101175.65;130364;1268;108870;-73
2022/08/09 04:37:30;;;;;;;4.70;3.40;;;;;;;14.80;79.70;101172.19;130381;1267;108645;-79
2022/08/09 04:40:51;;;;;;;4.20;3.30;;;;;;;14.88;79.87;101173.35;130223;1266;108764;-78
2022/08/09 04:43:57;;;;;;;4.60;3.50;;;;;;;14.97;79.79;101179.23;130389;1267;108820;-77
2022/08/09 04:47:02;;;;;;;5.30;3.20;;;;;;;15.03;79.83;101176.42;130374;1267;108855;-75
2022/08/09 04:50:09;;;;;;;4.90;3.30;;;;;;;15.09;80.02;101179.24;130367;1267;108726;-76
2022/08/09 04:53:14;;;;;;;3.80;3.00;;;;;;;15.18;80.26;101183.11;130315;1268;108838;-75
2022/08/09 04:56:20;;;;;;;4.50;3.20;;;;;;;15.29;80.26;101186.42;130283;1268;108901;-79
2022/08/09 04:59:25;;;;;;;5.30;3.10;;;;;;;15.36;80.34;101188.61;130203;1271;109126;-78
2022/08/09 05:02:30;;;;;;;5.90;3.10;;;;;;;15.44;80.43;101188.82;130085;1270;109023;-79
2022/08/09 05:05:36;;;;;;;5.90;3.40;;;;;;;15.51;80.18;101188.23;130223;1268;108714;-77
2022/08/09 05:08:41;;;;;;;4.80;3.60;;;;;;;15.60;79.97;101187.83;130349;1269;108892;-76
2022/08/09 05:11:47;;;;;;;3.10;2.80;;;;;;;15.75;79.78;101181.43;130207;1268;108746;-78
2022/08/09 05:14:52;;;;;;;4.60;3.20;;;;;;;15.92;79.99;101182.85;130240;1270;108757;-79
2022/08/09 05:17:57;;;;;;;5.10;3.40;;;;;;;16.07;80.09;101183.92;130232;1268;108778;-73
2022/08/09 05:21:03;;;;;;;7.90;3.90;;;;;;;16.17;79.68;101187.55;130231;1268;108789;-73
2022/08/09 05:24:09;;;;;;;5.80;3.30;;;;;;;16.24;79.53;101187.28;130166;1270;109056;-73
2022/08/09 05:27:15;;;;;;;4.90;4.00;;;;;;;16.35;79.42;101188.30;130152;1270;107522;-73
2022/08/09 05:30:20;;;;;;;7.30;4.00;;;;;;;16.48;79.32;101193.44;130138;1268;108945;-73
2022/08/09 05:33:25;;;;;;;6.40;4.30;;;;;;;16.59;79.24;101195.50;130127;1270;108786;-73
2022/08/09 05:36:31;;;;;;;8.30;4.50;;;;;;;16.67;79.14;101197.88;130246;1269;108783;-74
2022/08/09 05:39:39;;;;;;;5.20;3.90;;;;;;;16.75;79.27;101197.46;130389;1267;107756;-70
2022/08/09 05:42:44;;;;;;;6.10;3.20;;;;;;;16.80;79.03;101201.58;130305;1268;108849;-71
2022/08/09 05:45:49;;;;;;;5.80;3.20;;;;;;;16.84;78.86;101202.84;130241;1268;108332;-71
2022/08/09 05:48:55;;;;;;;6.10;3.80;;;;;;;16.92;78.99;101204.58;130411;1268;108972;-74
2022/08/09 05:52:00;;;;;;;5.20;3.70;;;;;;;17.03;78.70;101206.45;130415;1268;108982;-74
2022/08/09 05:55:07;;;;;;;6.80;5.00;;;;;;;17.13;78.75;101204.98;130458;1267;108977;-70
2022/08/09 05:58:13;;;;;;;10.50;6.20;;;;;;;17.22;78.61;101205.01;130349;1268;108712;-70
2022/08/09 06:01:18;;;;;;;6.20;4.20;;;;;;;17.28;78.47;101203.71;130458;1267;107785;-72
2022/08/09 06:04:24;;;;;;;8.10;3.80;;;;;;;17.31;78.24;101203.54;130341;1268;108801;-73
2022/08/09 06:07:30;;;;;;;5.30;3.20;;;;;;;17.36;77.93;101204.89;130447;1268;107125;-72
2022/08/09 06:10:38;;;;;;;6.30;3.20;;;;;;;17.44;77.73;101202.70;130257;1268;108952;-77
2022/08/09 06:13:44;;;;;;;6.50;3.70;;;;;;;17.53;77.61;101207.11;130332;1268;108959;-71
2022/08/09 06:16:49;;;;;;;4.90;3.10;;;;;;;17.67;77.60;101208.23;130459;1268;108754;-72
2022/08/09 06:19:54;;;;;;;5.10;3.10;;;;;;;17.79;77.22;101212.77;130320;1268;108706;-72
2022/08/09 06:23:00;;;;;;;4.50;2.70;;;;;;;17.86;77.18;101210.89;130280;1267;108608;-71
2022/08/09 06:26:06;;;;;;;3.90;2.90;;;;;;;17.95;77.29;101211.52;130318;1268;108822;-73
2022/08/09 06:29:11;;;;;;;4.90;3.00;;;;;;;18.05;76.66;101214.10;130424;1268;108591;-73
2022/08/09 06:32:17;;;;;;;6.80;2.60;;;;;;;18.13;76.14;101219.84;130387;1268;108233;-72
2022/08/09 06:35:22;;;;;;;5.40;3.20;;;;;;;18.22;76.37;101222.83;130364;1265;108774;-73
2022/08/09 06:38:27;;;;;;;7.70;3.30;;;;;;;18.28;76.40;101228.52;130395;1268;109159;-77
2022/08/09 06:41:33;;;;;;;4.60;3.00;;;;;;;18.32;75.84;101226.64;130301;1268;108682;-69
2022/08/09 06:44:38;;;;;;;4.60;3.00;;;;;;;18.36;75.53;101233.93;130244;1268;108876;-77
2022/08/09 06:47:44;;;;;;;5.80;3.40;;;;;;;18.42;75.64;101231.76;130209;1269;109176;-72
2022/08/09 06:50:49;;;;;;;6.00;3.30;;;;;;;18.53;75.85;101231.73;130316;1267;107211;-72
2022/08/09 06:53:54;;;;;;;4.90;2.90;;;;;;;18.62;75.76;101230.62;130359;1268;108962;-75
2022/08/09 06:57:00;;;;;;;5.10;2.90;;;;;;;18.72;75.28;101234.14;130376;1267;108770;-72
2022/08/09 07:00:08;;;;;;;5.80;2.70;;;;;;;18.84;75.13;101233.99;130198;1271;108794;-74
2022/08/09 07:03:13;;;;;;;5.90;3.00;;;;;;;19.00;75.07;101234.83;130428;1268;106249;-74
2022/08/09 07:06:19;;;;;;;6.10;3.10;;;;;;;19.15;74.86;101233.73;130374;1268;108745;-72
2022/08/09 07:09:24;;;;;;;6.90;3.40;;;;;;;19.28;73.87;101239.60;130307;1270;108110;-74
2022/08/09 07:12:30;;;;;;;5.30;2.80;;;;;;;19.39;73.93;101238.02;130317;1268;108798;-72
2022/08/09 07:15:35;;;;;;;4.20;2.80;;;;;;;19.51;73.67;101238.09;130319;1268;108697;-73
2022/08/09 07:18:40;;;;;;;5.60;3.30;;;;;;;19.56;73.62;101240.66;130335;1268;108920;-73
2022/08/09 07:21:46;;;;;;;5.20;3.30;;;;;;;19.62;73.19;101246.61;130341;1268;108912;-72
2022/08/09 07:24:51;;;;;;;5.70;2.90;;;;;;;19.70;73.30;101245.30;130392;1268;108807;-74
2022/08/09 07:27:57;;;;;;;5.20;2.70;;;;;;;19.79;73.15;101249.52;130330;1267;108756;-74
2022/08/09 07:31:04;;;;;;;4.50;3.10;;;;;;;19.90;72.79;101252.98;130264;1268;108797;-74
2022/08/09 07:34:09;;;;;;;5.70;2.50;;;;;;;20.02;72.77;101252.25;130397;1268;108972;-74
2022/08/09 07:37:14;;;;;;;6.30;2.50;;;;;;;20.14;72.68;101253.55;130391;1267;108759;-74
2022/08/09 07:40:21;;;;;;;4.20;2.40;;;;;;;20.30;72.20;101253.73;130287;1268;108690;-72
2022/08/09 07:43:26;;;;;;;3.30;2.20;;;;;;;20.42;71.66;101248.25;130338;1267;107725;-72
2022/08/09 07:46:32;;;;;;;4.90;2.50;;;;;;;20.50;70.93;101248.82;130273;1268;109057;-73
2022/08/09 07:49:37;;;;;;;5.30;2.70;;;;;;;20.55;71.00;101252.58;130378;1268;108718;-75
2022/08/09 07:52:42;;;;;;;4.20;2.80;;;;;;;20.63;70.92;101247.42;130362;1267;108624;-74
2022/08/09 07:55:48;;;;;;;4.50;2.60;;;;;;;20.71;70.63;101246.70;130227;1268;108707;-75
2022/08/09 07:58:53;;;;;;;6.40;2.30;;;;;;;20.77;70.33;101243.80;130314;1267;107740;-74
2022/08/09 08:01:58;;;;;;;3.90;2.70;;;;;;;20.82;69.43;101241.79;130387;1267;108976;-73
2022/08/09 08:05:04;;;;;;;3.80;2.50;;;;;;;20.86;70.14;101243.31;130295;1267;108821;-73
2022/08/09 08:08:10;;;;;;;3.70;2.30;;;;;;;21.05;70.48;101247.88;130230;1268;108766;-72
2022/08/09 08:11:16;;;;;;;7.00;2.70;;;;;;;21.23;70.32;101248.47;130321;1268;108780;-73
2022/08/09 08:14:21;;;;;;;6.30;2.30;;;;;;;21.37;69.56;101247.52;130329;1267;107448;-76
2022/08/09 08:17:26;;;;;;;3.50;2.20;;;;;;;21.47;69.45;101250.20;130387;1267;108987;-72
2022/08/09 08:20:32;;;;;;;4.70;2.50;;;;;;;21.59;69.13;101254.66;130385;1267;108865;-72
2022/08/09 08:23:37;;;;;;;4.80;2.20;;;;;;;21.65;68.80;101256.80;130408;1267;109782;-80
2022/08/09 08:26:42;;;;;;;4.50;2.20;;;;;;;21.73;68.59;101256.85;130606;1267;108710;-83
2022/08/09 08:29:48;;;;;;;4.00;2.10;;;;;;;21.86;67.99;101254.19;130502;1267;108710;-83
2022/08/09 08:32:53;;;;;;;3.80;2.10;;;;;;;21.96;67.85;101256.70;130682;1267;108807;-83
2022/08/09 08:35:59;;;;;;;3.30;1.70;;;;;;;22.10;67.26;101256.61;130656;1268;108686;-82
2022/08/09 08:39:05;;;;;;;12.60;4.30;;;;;;;22.22;67.47;101257.91;130559;1267;108884;-83
2022/08/09 08:42:11;;;;;;;3.70;2.10;;;;;;;22.43;67.51;101257.77;130389;1268;108842;-83
2022/08/09 08:45:24;;;;;;;4.80;2.00;;;;;;;22.55;66.53;101258.73;130256;1271;108872;-83
2022/08/09 08:48:30;;;;;;;3.20;1.70;;;;;;;22.50;64.90;101259.15;130544;1267;108702;-83
2022/08/09 08:51:36;;;;;;;4.20;1.70;;;;;;;22.50;65.51;101262.88;130535;1267;108734;-83
2022/08/09 08:54:41;;;;;;;3.80;1.50;;;;;;;22.59;64.66;101265.14;130519;1267;108946;-83
2022/08/09 08:57:48;;;;;;;2.30;1.30;;;;;;;22.66;64.48;101260.89;130466;1268;108853;-83
2022/08/09 09:00:55;;;;;;;3.40;1.60;;;;;;;22.73;63.84;101261.48;130489;1267;108952;-83
2022/08/09 09:04:02;;;;;;;2.20;1.50;;;;;;;22.78;63.67;101261.64;130362;1270;109137;-83
2022/08/09 09:07:10;;;;;;;3.50;1.40;;;;;;;22.87;64.21;101255.77;130320;1269;109754;-83
2022/08/09 09:10:17;;;;;;;2.70;1.50;;;;;;;22.97;63.64;101257.86;130471;1268;108161;-83
2022/08/09 09:13:23;;;;;;;3.00;1.40;;;;;;;23.01;62.93;101259.95;130686;1268;107850;-83
2022/08/09 09:16:31;;;;;;;1.40;1.20;;;;;;;23.05;62.67;101254.77;130720;1268;108984;-83
2022/08/09 09:19:36;;;;;;;1.90;1.30;;;;;;;23.08;61.65;101260.86;130351;1271;108668;-83
2022/08/09 09:22:56;;;;;;;2.00;1.20;;;;;;;23.09;61.33;101262.73;130382;1268;108949;-83
2022/08/09 09:26:02;;;;;;;3.30;1.20;;;;;;;23.07;60.89;101264.37;130484;1268;108888;-83
2022/08/09 09:29:07;;;;;;;2.50;1.20;;;;;;;23.07;59.87;101264.49;130557;1268;108830;-83
2022/08/09 09:32:18;;;;;;;3.20;1.20;;;;;;;23.01;58.11;101267.08;130488;1268;108837;-83
2022/08/09 09:35:24;;;;;;;2.60;1.40;;;;;;;22.93;59.47;101268.45;130464;1268;109499;-83
2022/08/09 09:38:46;;;;;;;3.40;1.30;;;;;;;22.86;57.19;101275.48;130470;1268;108761;-83
2022/08/09 09:41:52;;;;;;;2.20;1.20;;;;;;;22.76;58.04;101275.79;130495;1268;107738;-83
2022/08/09 09:44:59;;;;;;;3.40;1.40;;;;;;;22.78;57.60;101278.75;130505;1268;107706;-83
2022/08/09 09:48:06;;;;;;;2.10;1.30;;;;;;;22.88;58.69;101276.71;130515;1268;108575;-83
2022/08/09 09:51:21;;;;;;;3.50;1.40;;;;;;;22.97;58.63;101276.11;130482;1268;108780;-83
2022/08/09 09:54:33;;;;;;;2.30;1.30;;;;;;;23.03;57.54;101274.38;130498;1268;108748;-83
2022/08/09 09:57:39;;;;;;;2.60;1.30;;;;;;;23.03;57.28;101271.94;130355;1271;108729;-83
2022/08/09 10:00:47;;;;;;;2.30;1.50;;;;;;;23.07;57.69;101267.47;130478;1267;108672;-83
2022/08/09 10:03:54;;;;;;;3.60;1.30;;;;;;;23.11;57.05;101266.72;130444;1268;108771;-83
2022/08/09 10:07:00;;;;;;;2.20;1.50;;;;;;;23.17;57.05;101268.21;130379;1269;108842;-82
2022/08/09 10:10:06;;;;;;;2.70;1.40;;;;;;;23.15;56.74;101268.63;130388;1269;108898;-83
2022/08/09 10:13:11;;;;;;;2.10;1.40;;;;;;;23.09;55.28;101272.00;130544;1268;108824;-83
2022/08/09 10:16:27;;;;;;;4.00;1.20;;;;;;;23.07;56.12;101268.81;130479;1268;108719;-84
2022/08/09 10:19:37;;;;;;;3.00;1.00;;;;;;;23.12;54.79;101268.77;130464;1268;108843;-84
2022/08/09 10:22:43;;;;;;;3.30;1.30;;;;;;;23.14;55.84;101272.80;130478;1268;108760;-84
2022/08/09 10:25:49;;;;;;;2.50;1.40;;;;;;;23.25;55.80;101268.20;130361;1268;108779;-84
2022/08/09 10:28:56;;;;;;;3.30;1.50;;;;;;;23.39;56.27;101265.69;130406;1267;107671;-83
2022/08/09 10:32:02;;;;;;;3.90;1.40;;;;;;;23.53;56.29;101264.95;130435;1270;109053;-83
2022/08/09 10:35:09;;;;;;;3.20;1.50;;;;;;;23.62;55.62;101266.30;130502;1268;108966;-83
2022/08/09 10:38:17;;;;;;;5.60;1.60;;;;;;;23.61;55.05;101269.74;130520;1267;108726;-83
2022/08/09 10:41:22;;;;;;;3.10;1.40;;;;;;;23.41;54.42;101265.27;130376;1268;108710;-83
2022/08/09 10:44:37;;;;;;;2.30;1.40;;;;;;;23.35;54.09;101269.36;130453;1268;105918;-84
2022/08/09 10:48:01;;;;;;;2.00;1.30;;;;;;;23.30;54.27;101265.55;130341;1268;108380;-84
2022/08/09 10:51:19;;;;;;;1.80;1.10;;;;;;;23.32;53.84;101263.41;130491;1267;108756;-83
2022/08/09 10:54:26;;;;;;;2.40;1.30;;;;;;;23.38;54.16;101261.67;130448;1268;108797;-84
2022/08/09 10:57:37;;;;;;;2.60;1.40;;;;;;;23.35;54.03;101263.92;130372;1268;108758;-83
2022/08/09 11:00:43;;;;;;;3.60;1.30;;;;;;;23.40;55.03;101267.20;130513;1268;108691;-85
2022/08/09 11:04:12;;;;;;;3.00;1.40;;;;;;;23.41;54.17;101262.84;130476;1268;108773;-83
2022/08/09 11:07:30;;;;;;;2.60;1.30;;;;;;;23.46;54.81;101261.08;130432;1267;107409;-83
2022/08/09 11:10:55;;;;;;;1.90;1.40;;;;;;;23.37;53.55;101258.99;130454;1268;107736;-83
2022/08/09 11:14:34;;;;;;;2.00;1.30;;;;;;;23.38;53.82;101262.39;130558;1268;108880;-83
2022/08/09 11:17:51;;;;;;;2.00;1.30;;;;;;;23.45;53.95;101261.90;130416;1267;108767;-80
2022/08/09 11:20:56;;;;;;;2.80;1.30;;;;;;;23.48;54.51;101253.57;130311;1268;106902;-76
2022/08/09 11:24:03;;;;;;;2.20;1.40;;;;;;;23.57;54.09;101249.27;130225;1268;108778;-77
2022/08/09 11:27:33;;;;;;;2.30;1.40;;;;;;;23.68;54.05;101252.07;130267;1267;108595;-78
2022/08/09 11:30:38;;;;;;;4.20;1.40;;;;;;;23.75;53.96;101246.14;130345;1268;108744;-78
2022/08/09 11:33:52;;;;;;;4.30;1.40;;;;;;;23.78;53.52;101246.59;130296;1268;107853;-83
2022/08/09 11:37:00;;;;;;;4.20;1.50;;;;;;;23.69;52.63;101248.59;130274;1268;107694;-81
2022/08/09 11:40:08;;;;;;;2.80;1.20;;;;;;;23.64;53.23;101248.11;130401;1268;106933;-80
2022/08/09 11:43:37;;;;;;;3.90;1.60;;;;;;;23.61;53.66;101242.58;130283;1268;108854;-79
2022/08/09 11:46:59;;;;;;;4.60;1.80;;;;;;;23.46;52.60;101236.30;130301;1268;108832;-77
2022/08/09 11:50:06;;;;;;;3.10;1.50;;;;;;;23.27;52.39;101240.41;130363;1268;108942;-78
2022/08/09 11:53:22;;;;;;;3.90;1.80;;;;;;;23.16;52.62;101234.95;130188;1268;107726;-80
2022/08/09 11:56:28;;;;;;;3.70;1.60;;;;;;;23.06;52.25;101236.23;130353;1268;108873;-80
2022/08/09 11:59:34;;;;;;;3.80;1.70;;;;;;;22.90;52.46;101234.75;130367;1268;108534;-79
2022/08/09 12:02:41;;;;;;;1.90;1.50;;;;;;;22.85;52.91;101232.79;129352;1268;1352016;-78
2022/08/09 12:05:47;;;;;;;3.50;1.50;;;;;;;22.77;52.48;101231.04;130276;1268;107765;-79
2022/08/09 12:08:55;;;;;;;4.50;1.70;;;;;;;22.71;52.75;101231.74;130270;1268;106686;-79
2022/08/09 12:12:04;;;;;;;3.60;1.80;;;;;;;22.74;53.35;101227.77;130164;1268;108184;-79
2022/08/09 12:15:24;;;;;;;2.30;1.70;;;;;;;22.77;52.33;101228.23;130392;1268;108749;-79
2022/08/09 12:18:32;;;;;;;3.30;1.50;;;;;;;22.67;52.79;101223.83;130295;1268;108734;-76
2022/08/09 12:21:39;;;;;;;1.60;1.50;;;;;;;22.63;52.87;101222.91;130289;1268;108991;-77
2022/08/09 12:24:45;;;;;;;4.00;1.50;;;;;;;22.64;52.93;101219.73;130368;1268;108741;-80
2022/08/09 12:28:10;;;;;;;6.90;1.90;;;;;;;22.64;52.83;101214.30;130287;1268;108194;-74
2022/08/09 12:31:25;;;;;;;3.00;1.80;;;;;;;22.65;53.22;101207.64;130312;1268;108768;-77
2022/08/09 12:34:39;;;;;;;4.10;1.90;;;;;;;22.66;52.89;101202.70;130382;1268;108794;-81
2022/08/09 12:37:44;;;;;;;4.20;1.90;;;;;;;22.64;52.18;101194.80;130276;1267;108837;-76
2022/08/09 12:40:51;;;;;;;2.70;1.70;;;;;;;22.64;52.28;101194.16;130282;1268;108579;-76
2022/08/09 12:43:58;;;;;;;2.20;1.60;;;;;;;22.61;52.57;101191.78;130285;1268;107635;-77
2022/08/09 12:47:05;;;;;;;3.20;1.70;;;;;;;22.62;51.96;101192.41;130303;1268;108637;-75
2022/08/09 12:50:18;;;;;;;3.30;1.60;;;;;;;22.60;52.48;101189.40;129976;1270;107623;-76
2022/08/09 12:53:29;;;;;;;4.50;2.30;;;;;;;22.54;52.22;101189.16;130098;1269;108603;-77
2022/08/09 12:56:47;;;;;;;3.10;1.90;;;;;;;22.53;52.32;101188.86;130050;1269;108981;-76
2022/08/09 12:59:52;;;;;;;2.80;1.80;;;;;;;22.59;52.37;101186.27;130110;1269;109084;-75
2022/08/09 13:02:59;;;;;;;3.90;1.80;;;;;;;22.62;51.67;101181.86;130193;1270;108808;-76
2022/08/09 13:06:05;;;;;;;3.20;1.60;;;;;;;22.65;52.17;101178.17;130168;1271;108760;-75
2022/08/09 13:09:14;;;;;;;2.40;1.80;;;;;;;22.66;51.42;101177.13;130117;1271;108172;-76
2022/08/09 13:12:19;;;;;;;1.90;1.60;;;;;;;22.63;51.26;101174.16;130315;1271;108722;-77
2022/08/09 13:15:25;;;;;;;2.50;1.60;;;;;;;22.65;51.69;101172.90;130081;1271;108898;-77
2022/08/09 13:18:42;;;;;;;2.60;1.70;;;;;;;22.68;51.37;101171.19;130040;1271;108808;-77
2022/08/09 13:21:47;;;;;;;1.80;1.60;;;;;;;22.69;51.08;101167.66;130124;1271;108601;-75
2022/08/09 13:25:01;;;;;;;2.80;1.50;;;;;;;22.71;50.93;101171.95;130020;1271;108754;-75
2022/08/09 13:28:14;;;;;;;3.00;1.70;;;;;;;22.70;50.27;101175.70;130174;1270;108730;-73
2022/08/09 13:31:19;;;;;;;2.10;1.70;;;;;;;22.71;50.90;101171.73;130176;1270;107888;-76
2022/08/09 13:34:26;;;;;;;1.90;1.60;;;;;;;22.74;50.52;101175.27;130267;1270;108756;-79
2022/08/09 13:37:32;;;;;;;2.30;1.60;;;;;;;22.75;49.95;101170.89;130219;1271;107431;-79
2022/08/09 13:40:37;;;;;;;2.40;1.50;;;;;;;22.73;49.55;101169.96;130209;1271;108154;-74
2022/08/09 13:43:43;;;;;;;2.90;1.70;;;;;;;22.76;49.97;101167.70;130185;1271;108638;-73
2022/08/09 13:46:48;;;;;;;4.90;1.80;;;;;;;22.77;49.97;101163.48;130223;1271;108890;-75
2022/08/09 13:49:54;;;;;;;1.70;1.40;;;;;;;22.77;48.75;101166.20;130322;1268;108883;-73
2022/08/09 13:52:59;;;;;;;3.00;1.60;;;;;;;22.77;49.25;101162.52;130323;1268;108797;-76
2022/08/09 13:56:05;;;;;;;2.30;1.60;;;;;;;22.76;48.91;101162.34;130321;1268;107704;-77
2022/08/09 13:59:10;;;;;;;2.70;1.70;;;;;;;22.77;48.85;101159.02;130189;1268;109015;-77
2022/08/09 14:02:16;;;;;;;2.70;1.50;;;;;;;22.75;48.51;101160.85;130374;1268;107185;-78
2022/08/09 14:05:21;;;;;;;3.40;1.90;;;;;;;22.78;49.09;101160.67;130311;1268;108668;-77
2022/08/09 14:08:27;;;;;;;2.90;1.50;;;;;;;22.81;49.07;101157.36;130297;1268;108855;-78
2022/08/09 14:11:32;;;;;;;2.90;1.80;;;;;;;22.81;48.17;101158.65;130301;1268;108661;-79
2022/08/09 14:14:38;;;;;;;2.20;1.60;;;;;;;22.81;48.06;101160.04;130179;1268;108944;-74